Time;durP1;ratioP1;P1;durP2;ratioP2;P2;SDS_P1;SDS_P2;PMS_P1;PMS_P2;Temp;Humidity;BMP_temperature;BMP_pressure;BME280_temperature;BME280_humidity;BME280_pressure;Samples;Min_cycle;Max_cycle;Signal;HPM_P1;HPM_P2
2022/03/10 00:01:42;;;;;;;31.73;18.65;;;7.80;50.10;;;;;;5044735;28;20025;-72
2022/03/10 00:04:08;;;;;;;31.95;19.38;;;7.80;50.20;;;;;;5041002;28;20031;-72
2022/03/10 00:06:33;;;;;;;33.50;18.65;;;7.80;50.20;;;;;;5054570;28;20032;-72
2022/03/10 00:08:59;;;;;;;27.48;19.33;;;7.80;50.30;;;;;;5037287;28;20128;-72
2022/03/10 00:11:24;;;;;;;30.45;18.98;;;7.80;50.20;;;;;;5036760;28;20429;-71
2022/03/10 00:13:50;;;;;;;32.05;20.05;;;7.70;50.10;;;;;;5036940;28;20041;-72
2022/03/10 00:16:16;;;;;;;31.67;19.10;;;7.70;50.00;;;;;;5040184;28;20401;-72
2022/03/10 00:18:41;;;;;;;26.17;17.13;;;7.70;50.00;;;;;;5035631;28;20038;-72
2022/03/10 00:21:07;;;;;;;32.28;19.52;;;7.70;50.00;;;;;;5036470;28;20376;-72
2022/03/10 00:23:32;;;;;;;32.33;19.73;;;7.70;50.00;;;;;;5048274;28;20021;-72
2022/03/10 00:25:58;;;;;;;29.23;18.80;;;7.70;50.00;;;;;;5039732;28;20060;-71
2022/03/10 00:28:25;;;;;;;28.65;17.48;;;7.70;50.00;;;;;;5035590;28;20025;-71
2022/03/10 00:30:51;;;;;;;29.20;17.90;;;7.60;49.90;;;;;;5049642;28;20375;-71
2022/03/10 00:33:16;;;;;;;29.65;17.85;;;7.60;49.90;;;;;;5044475;28;20163;-71
2022/03/10 00:35:42;;;;;;;31.02;17.83;;;7.60;50.00;;;;;;5043726;28;20039;-71
2022/03/10 00:38:07;;;;;;;29.50;17.60;;;7.60;50.00;;;;;;5036406;28;20124;-71
2022/03/10 00:40:33;;;;;;;26.80;17.35;;;7.60;50.00;;;;;;5038454;28;20433;-71
2022/03/10 00:42:59;;;;;;;28.70;17.80;;;7.60;49.90;;;;;;5041598;28;20074;-71
2022/03/10 00:45:27;;;;;;;27.35;16.80;;;7.50;49.80;;;;;;5047052;28;20029;-71
2022/03/10 00:47:54;;;;;;;23.55;16.48;;;7.50;49.90;;;;;;5036034;28;20083;-71
2022/03/10 00:50:20;;;;;;;28.08;17.08;;;7.50;50.00;;;;;;5041617;28;20030;-71
2022/03/10 00:52:47;;;;;;;27.00;16.73;;;7.50;50.20;;;;;;5040540;28;20071;-71
2022/03/10 00:55:17;;;;;;;27.55;17.23;;;7.50;50.30;;;;;;5050359;28;20028;-72
2022/03/10 00:57:43;;;;;;;26.67;16.77;;;7.40;50.30;;;;;;5035223;28;20025;-71
2022/03/10 01:00:10;;;;;;;26.70;16.80;;;7.40;50.30;;;;;;5037386;28;20041;-71
2022/03/10 01:02:36;;;;;;;28.25;16.95;;;7.40;50.40;;;;;;5033784;28;20030;-72
2022/03/10 01:05:03;;;;;;;27.42;18.10;;;7.40;50.50;;;;;;5036784;28;20018;-71
2022/03/10 01:07:28;;;;;;;24.75;16.52;;;7.30;50.50;;;;;;5017525;28;20026;-72
2022/03/10 01:09:54;;;;;;;27.08;16.45;;;7.30;50.60;;;;;;5038484;28;20119;-71
2022/03/10 01:12:20;;;;;;;30.58;18.02;;;7.30;51.40;;;;;;5045068;28;20033;-71
2022/03/10 01:14:45;;;;;;;25.27;16.35;;;7.20;50.70;;;;;;5034655;28;20033;-71
2022/03/10 01:17:11;;;;;;;24.42;15.57;;;7.20;50.80;;;;;;5038402;28;20024;-72
2022/03/10 01:19:37;;;;;;;27.90;17.33;;;7.20;50.90;;;;;;5054434;28;20025;-71
2022/03/10 01:22:03;;;;;;;25.10;16.38;;;7.10;50.90;;;;;;5051632;28;20033;-71
2022/03/10 01:24:29;;;;;;;26.13;16.92;;;7.10;51.00;;;;;;5046159;28;20094;-71
2022/03/10 01:26:55;;;;;;;26.73;16.95;;;7.10;51.00;;;;;;5052058;28;20032;-71
2022/03/10 01:29:20;;;;;;;26.73;15.90;;;7.10;51.10;;;;;;5052478;28;20060;-71
2022/03/10 01:31:46;;;;;;;24.25;14.95;;;7.10;51.20;;;;;;5046875;28;20060;-71
2022/03/10 01:34:13;;;;;;;26.92;17.52;;;7.10;51.20;;;;;;5037899;28;20037;-71
2022/03/10 01:36:40;;;;;;;25.52;15.93;;;7.00;51.20;;;;;;5036504;28;20034;-71
2022/03/10 01:39:05;;;;;;;24.30;15.63;;;7.00;51.20;;;;;;5033435;28;20026;-71
2022/03/10 01:41:32;;;;;;;26.60;15.52;;;7.00;51.30;;;;;;5042247;28;20472;-72
2022/03/10 01:44:01;;;;;;;25.88;16.67;;;7.00;51.40;;;;;;5040060;28;20017;-71
2022/03/10 01:46:27;;;;;;;28.23;16.00;;;7.00;51.50;;;;;;5040488;28;20067;-71
2022/03/10 01:48:53;;;;;;;24.58;15.35;;;7.00;51.60;;;;;;5054663;28;20029;-71
2022/03/10 01:51:20;;;;;;;24.08;16.20;;;6.90;51.50;;;;;;5047465;28;20053;-71
2022/03/10 01:53:48;;;;;;;24.75;15.75;;;6.90;51.60;;;;;;5045338;28;20123;-71
2022/03/10 01:56:15;;;;;;;24.33;14.35;;;6.80;51.60;;;;;;5040039;28;20087;-72
2022/03/10 01:58:41;;;;;;;23.98;15.05;;;6.80;51.50;;;;;;5036423;28;20098;-72
2022/03/10 02:01:09;;;;;;;25.55;15.05;;;6.80;51.70;;;;;;5039863;28;20030;-71
2022/03/10 02:03:35;;;;;;;24.30;15.38;;;6.80;51.80;;;;;;5045577;28;20074;-71
2022/03/10 02:06:00;;;;;;;24.90;15.63;;;6.80;51.90;;;;;;5040876;28;20036;-71
2022/03/10 02:11:12;;;;;;;25.02;15.90;;;6.70;51.90;;;;;;5040182;28;20037;-71
2022/03/10 02:13:37;;;;;;;27.50;16.80;;;6.80;51.90;;;;;;5054473;28;20369;-71
2022/03/10 02:18:47;;;;;;;24.70;16.15;;;6.70;52.60;;;;;;5037103;28;20033;-71
2022/03/10 02:21:14;;;;;;;26.17;15.35;;;6.70;52.10;;;;;;5039902;28;20150;-71
2022/03/10 02:23:40;;;;;;;24.27;15.32;;;6.70;52.10;;;;;;5038909;28;20112;-71
2022/03/10 02:26:06;;;;;;;23.75;15.48;;;6.60;52.20;;;;;;5035067;28;20033;-71
2022/03/10 02:28:33;;;;;;;25.17;14.95;;;6.70;52.30;;;;;;5037273;28;20567;-71
2022/03/10 02:30:58;;;;;;;26.20;16.23;;;6.60;52.20;;;;;;5036838;28;20072;-72
2022/03/10 02:33:24;;;;;;;25.90;15.43;;;6.60;52.30;;;;;;5054048;28;20458;-71
2022/03/10 02:35:50;;;;;;;24.70;15.68;;;6.60;52.30;;;;;;5041102;28;20466;-71
2022/03/10 02:38:18;;;;;;;25.90;14.85;;;6.60;52.40;;;;;;5052364;28;20413;-71
2022/03/10 02:40:47;;;;;;;23.13;14.95;;;6.50;52.40;;;;;;5056939;28;20025;-71
2022/03/10 02:43:13;;;;;;;26.35;16.52;;;6.60;52.50;;;;;;5050179;28;20090;-71
2022/03/10 02:45:39;;;;;;;24.25;15.15;;;6.50;52.40;;;;;;5050127;28;20397;-71
2022/03/10 02:48:05;;;;;;;24.33;14.98;;;6.50;52.50;;;;;;5049175;28;20033;-71
2022/03/10 02:50:31;;;;;;;25.23;15.25;;;6.50;52.50;;;;;;5038607;28;20076;-71
2022/03/10 02:52:56;;;;;;;31.13;15.98;;;6.50;52.50;;;;;;5042151;28;20108;-71
2022/03/10 02:55:22;;;;;;;23.60;14.88;;;6.50;52.60;;;;;;5037525;28;20116;-71
2022/03/10 02:57:49;;;;;;;22.45;14.65;;;6.50;52.60;;;;;;5046004;28;20111;-71
2022/03/10 03:00:15;;;;;;;24.70;15.95;;;6.50;52.70;;;;;;5053624;28;20024;-71
2022/03/10 03:02:41;;;;;;;26.33;15.45;;;6.50;52.70;;;;;;5038673;28;20033;-72
2022/03/10 03:05:09;;;;;;;24.23;15.07;;;6.50;52.70;;;;;;5037283;28;20029;-71
2022/03/10 03:07:35;;;;;;;26.35;15.65;;;6.50;52.70;;;;;;5040057;28;20463;-71
2022/03/10 03:10:01;;;;;;;23.80;14.52;;;6.40;52.70;;;;;;5043465;28;20037;-71
2022/03/10 03:12:27;;;;;;;23.67;15.35;;;6.40;52.80;;;;;;5052112;28;20029;-71
2022/03/10 03:14:53;;;;;;;24.52;15.52;;;6.40;52.80;;;;;;5054970;28;20029;-71
2022/03/10 03:17:19;;;;;;;24.40;14.05;;;6.40;52.90;;;;;;5034707;28;20398;-71
2022/03/10 03:19:44;;;;;;;25.38;14.60;;;6.40;53.00;;;;;;5055783;28;20098;-71
2022/03/10 03:22:10;;;;;;;24.00;14.55;;;6.30;53.00;;;;;;5052524;28;20018;-71
2022/03/10 03:24:36;;;;;;;26.48;14.60;;;6.30;53.10;;;;;;5036398;28;20056;-71
2022/03/10 03:27:02;;;;;;;27.40;15.95;;;6.30;53.10;;;;;;5038131;28;20021;-71
2022/03/10 03:29:27;;;;;;;24.83;14.45;;;6.30;53.20;;;;;;5052729;28;20473;-71
2022/03/10 03:31:53;;;;;;;25.17;14.48;;;6.30;53.20;;;;;;5053768;28;20039;-71
2022/03/10 03:34:19;;;;;;;26.25;15.40;;;6.30;53.20;;;;;;5050213;28;20017;-71
2022/03/10 03:36:45;;;;;;;23.88;14.70;;;6.20;53.10;;;;;;5043916;28;20442;-71
2022/03/10 03:39:12;;;;;;;25.88;15.75;;;6.20;53.20;;;;;;5024187;28;20029;-71
2022/03/10 03:41:38;;;;;;;28.45;16.13;;;6.30;53.20;;;;;;5035497;28;20087;-71
2022/03/10 03:44:06;;;;;;;24.08;14.93;;;6.20;53.10;;;;;;5050811;28;20035;-71
2022/03/10 03:46:32;;;;;;;28.92;15.75;;;6.20;53.10;;;;;;5055332;28;20115;-71
2022/03/10 03:48:57;;;;;;;25.83;15.68;;;6.20;53.20;;;;;;5051601;28;20116;-71
2022/03/10 03:51:23;;;;;;;25.13;14.88;;;6.20;53.20;;;;;;5056307;28;20418;-71
2022/03/10 03:53:49;;;;;;;24.42;15.20;;;6.20;53.20;;;;;;5037394;28;20041;-71
2022/03/10 03:56:15;;;;;;;25.10;16.10;;;6.20;53.20;;;;;;5054924;28;20347;-70
2022/03/10 03:58:41;;;;;;;27.35;15.77;;;6.20;53.30;;;;;;5039638;28;20105;-71
2022/03/10 04:01:07;;;;;;;24.65;14.90;;;6.10;53.20;;;;;;5037243;28;20063;-72
2022/03/10 04:03:32;;;;;;;23.80;16.00;;;6.10;53.30;;;;;;5049800;28;20021;-72
2022/03/10 04:05:58;;;;;;;25.42;16.15;;;6.10;53.40;;;;;;5037303;28;20036;-71
2022/03/10 04:08:25;;;;;;;27.52;16.45;;;6.10;53.50;;;;;;5041622;28;20033;-71
2022/03/10 04:10:52;;;;;;;25.75;15.98;;;6.10;53.60;;;;;;5034947;28;20029;-71
2022/03/10 04:13:23;;;;;;;22.67;14.85;;;6.10;53.70;;;;;;5046271;28;20052;-71
2022/03/10 04:15:50;;;;;;;30.58;17.90;;;6.00;53.80;;;;;;5054522;28;20029;-71
2022/03/10 04:18:17;;;;;;;26.20;15.10;;;6.00;53.80;;;;;;5048022;28;20025;-71
2022/03/10 04:20:44;;;;;;;26.55;14.98;;;6.00;53.70;;;;;;5034426;28;20339;-71
2022/03/10 04:23:14;;;;;;;23.80;15.23;;;6.00;53.70;;;;;;5042494;28;20113;-71
2022/03/10 04:25:40;;;;;;;25.58;15.95;;;6.00;53.70;;;;;;5055228;28;20505;-71
2022/03/10 04:28:05;;;;;;;23.23;15.25;;;6.00;53.70;;;;;;5034279;28;20147;-71
2022/03/10 04:30:34;;;;;;;24.70;15.05;;;6.00;53.70;;;;;;5054262;28;20067;-71
2022/03/10 04:33:00;;;;;;;24.67;15.60;;;6.00;53.70;;;;;;5046389;28;20029;-71
2022/03/10 04:35:26;;;;;;;26.98;16.65;;;6.00;53.60;;;;;;5055428;28;20044;-71
2022/03/10 04:37:53;;;;;;;25.70;16.42;;;6.00;53.60;;;;;;5041693;28;20111;-70
2022/03/10 04:40:20;;;;;;;25.52;15.43;;;6.00;53.60;;;;;;5035314;28;20064;-70
2022/03/10 04:42:47;;;;;;;25.98;15.50;;;6.00;53.50;;;;;;5037505;28;20116;-71
2022/03/10 04:45:13;;;;;;;25.13;15.07;;;6.00;53.50;;;;;;5051990;28;20116;-71
2022/03/10 04:47:41;;;;;;;24.55;15.13;;;6.00;53.50;;;;;;5047230;28;20124;-71
2022/03/10 04:50:08;;;;;;;27.00;16.50;;;6.00;53.60;;;;;;5039541;28;20025;-71
2022/03/10 04:52:34;;;;;;;22.92;14.40;;;6.00;53.60;;;;;;5035776;28;20477;-71
2022/03/10 04:55:00;;;;;;;23.13;15.40;;;6.00;53.60;;;;;;5038053;28;20069;-71
2022/03/10 04:57:26;;;;;;;24.13;15.32;;;6.00;53.70;;;;;;5037817;28;20079;-71
2022/03/10 04:59:52;;;;;;;29.45;16.20;;;5.90;53.70;;;;;;5042463;28;20427;-71
2022/03/10 05:02:18;;;;;;;25.88;16.83;;;5.90;53.80;;;;;;5039802;28;20104;-71
2022/03/10 05:04:44;;;;;;;29.10;16.52;;;5.90;54.00;;;;;;5035831;28;20681;-71
2022/03/10 05:07:10;;;;;;;26.02;17.13;;;5.90;54.60;;;;;;5039493;28;20037;-71
2022/03/10 05:09:35;;;;;;;28.77;16.05;;;5.90;54.10;;;;;;5024999;28;20025;-71
2022/03/10 05:12:01;;;;;;;24.60;15.73;;;5.90;54.20;;;;;;5036678;28;20030;-71
2022/03/10 05:14:27;;;;;;;27.33;16.55;;;5.80;54.30;;;;;;5039587;28;20031;-71
2022/03/10 05:16:52;;;;;;;25.70;15.30;;;5.80;54.40;;;;;;5044896;28;20051;-71
2022/03/10 05:19:18;;;;;;;27.50;16.77;;;5.80;54.50;;;;;;5042767;28;20144;-71
2022/03/10 05:21:44;;;;;;;25.52;16.38;;;5.70;54.60;;;;;;5025188;28;20025;-71
2022/03/10 05:24:10;;;;;;;24.27;14.30;;;5.70;54.70;;;;;;5053427;28;20029;-71
2022/03/10 05:26:37;;;;;;;25.23;15.77;;;5.60;54.70;;;;;;5036094;28;20442;-71
2022/03/10 05:29:03;;;;;;;24.50;15.10;;;5.60;54.70;;;;;;5039279;28;20374;-71
2022/03/10 05:31:28;;;;;;;27.25;16.08;;;5.60;54.70;;;;;;5055259;28;20044;-71
2022/03/10 05:33:54;;;;;;;30.45;16.63;;;5.60;54.80;;;;;;5037002;28;20037;-71
2022/03/10 05:36:20;;;;;;;24.48;15.40;;;5.50;54.80;;;;;;5033853;28;20041;-71
2022/03/10 05:38:45;;;;;;;27.85;16.23;;;5.50;54.90;;;;;;5047682;28;20029;-71
2022/03/10 05:41:11;;;;;;;27.27;16.00;;;5.50;55.00;;;;;;5033508;28;20112;-71
2022/03/10 05:43:36;;;;;;;27.60;17.58;;;5.50;55.10;;;;;;5044580;28;20045;-71
2022/03/10 05:46:03;;;;;;;26.27;17.15;;;5.40;55.10;;;;;;5038438;28;20029;-72
2022/03/10 05:48:30;;;;;;;28.30;17.33;;;5.40;55.20;;;;;;5048022;28;20108;-72
2022/03/10 05:50:56;;;;;;;26.90;17.15;;;5.40;55.30;;;;;;5033356;28;20033;-72
2022/03/10 05:53:21;;;;;;;27.38;16.10;;;5.40;55.40;;;;;;5044032;28;20089;-71
2022/03/10 05:55:47;;;;;;;27.17;16.80;;;5.40;55.40;;;;;;5038493;28;20033;-72
2022/03/10 05:58:13;;;;;;;24.45;15.10;;;5.30;55.50;;;;;;5046918;28;20029;-71
2022/03/10 06:00:39;;;;;;;25.92;16.30;;;5.30;55.50;;;;;;5037050;28;20033;-72
2022/03/10 06:03:06;;;;;;;26.48;16.17;;;5.30;55.50;;;;;;5033423;28;20079;-71
2022/03/10 06:05:32;;;;;;;29.08;16.27;;;5.30;55.60;;;;;;5034003;28;20029;-70
2022/03/10 06:07:58;;;;;;;28.00;16.55;;;5.30;55.50;;;;;;5040631;28;20086;-71
2022/03/10 06:10:24;;;;;;;26.75;15.95;;;5.30;55.60;;;;;;5047367;28;20112;-72
2022/03/10 06:12:49;;;;;;;28.60;15.95;;;5.30;55.60;;;;;;5052329;28;20037;-71
2022/03/10 06:15:15;;;;;;;26.10;15.73;;;5.30;55.60;;;;;;5040412;28;20034;-72
2022/03/10 06:17:41;;;;;;;26.80;15.95;;;5.30;55.60;;;;;;5042109;28;20040;-72
2022/03/10 06:20:08;;;;;;;26.20;16.30;;;5.30;55.60;;;;;;5042122;28;20102;-69
2022/03/10 06:22:34;;;;;;;24.85;15.55;;;5.30;55.60;;;;;;5034261;28;20025;-70
2022/03/10 06:25:00;;;;;;;28.08;17.55;;;5.30;55.60;;;;;;5039666;28;20025;-70
2022/03/10 06:27:26;;;;;;;30.75;16.85;;;5.30;55.60;;;;;;5043056;28;20021;-71
2022/03/10 06:29:53;;;;;;;25.35;16.30;;;5.30;55.50;;;;;;5038945;28;20107;-74
2022/03/10 06:32:20;;;;;;;26.33;16.80;;;5.40;55.50;;;;;;5044501;28;20507;-74
2022/03/10 06:34:47;;;;;;;30.70;20.75;;;5.40;55.50;;;;;;5040118;28;20040;-74
2022/03/10 06:37:13;;;;;;;32.22;22.65;;;5.40;55.50;;;;;;5053945;28;20029;-74
2022/03/10 06:39:39;;;;;;;33.60;22.95;;;5.40;55.50;;;;;;5050026;28;20036;-74
2022/03/10 06:42:05;;;;;;;34.58;22.17;;;5.50;56.00;;;;;;5036497;28;20022;-74
2022/03/10 06:44:31;;;;;;;29.33;20.08;;;5.50;55.50;;;;;;5039451;28;20111;-73
2022/03/10 06:46:57;;;;;;;31.45;20.30;;;5.50;55.40;;;;;;5041781;28;20040;-73
2022/03/10 06:49:26;;;;;;;30.15;19.52;;;5.60;55.40;;;;;;5038822;28;20029;-73
2022/03/10 06:51:51;;;;;;;29.73;20.05;;;5.60;55.50;;;;;;5044474;28;20519;-73
2022/03/10 06:54:20;;;;;;;33.08;18.83;;;5.70;55.50;;;;;;5043577;28;20142;-73
2022/03/10 06:56:46;;;;;;;31.83;18.58;;;5.70;55.40;;;;;;5028501;28;20038;-74
2022/03/10 06:59:11;;;;;;;31.77;20.20;;;5.80;55.30;;;;;;5054765;28;20032;-74
2022/03/10 07:01:37;;;;;;;31.23;19.35;;;5.80;55.30;;;;;;5037545;28;20481;-74
2022/03/10 07:04:02;;;;;;;31.92;17.38;;;5.80;55.20;;;;;;5038149;28;20419;-75
2022/03/10 07:06:28;;;;;;;30.98;17.25;;;5.90;55.00;;;;;;5046029;28;20032;-75
2022/03/10 07:08:54;;;;;;;27.20;18.15;;;6.10;54.70;;;;;;5044602;28;20036;-75
2022/03/10 07:11:20;;;;;;;28.10;16.27;;;6.20;54.30;;;;;;5027589;28;20083;-73
2022/03/10 07:13:46;;;;;;;25.00;15.73;;;6.40;54.00;;;;;;5045096;28;20442;-70
2022/03/10 07:16:12;;;;;;;23.80;14.07;;;6.50;53.80;;;;;;5055999;28;20033;-70
2022/03/10 07:18:37;;;;;;;27.08;15.80;;;6.70;53.40;;;;;;5045890;28;20402;-71
2022/03/10 07:21:04;;;;;;;27.42;15.48;;;6.90;52.90;;;;;;5049136;28;20068;-70
2022/03/10 07:23:30;;;;;;;23.73;14.20;;;7.10;52.40;;;;;;5039665;28;20030;-70
2022/03/10 07:25:56;;;;;;;24.05;14.60;;;7.30;51.90;;;;;;5051452;28;20113;-71
2022/03/10 07:28:22;;;;;;;25.73;14.00;;;7.40;52.30;;;;;;5039132;28;20049;-69
2022/03/10 07:30:48;;;;;;;24.45;15.25;;;7.60;51.50;;;;;;5040225;28;20049;-72
2022/03/10 07:33:14;;;;;;;23.35;13.57;;;7.70;51.20;;;;;;5034716;28;20358;-71
2022/03/10 07:35:40;;;;;;;23.52;13.63;;;7.80;50.80;;;;;;5057087;28;20040;-71
2022/03/10 07:38:06;;;;;;;22.60;12.60;;;8.00;50.60;;;;;;5053429;28;20029;-73
2022/03/10 07:40:31;;;;;;;20.48;12.20;;;8.10;50.20;;;;;;5039471;28;20018;-73
2022/03/10 07:42:57;;;;;;;20.00;13.15;;;8.30;49.90;;;;;;5043639;28;20082;-72
2022/03/10 07:45:23;;;;;;;22.00;12.80;;;8.40;49.50;;;;;;5037507;28;20029;-73
2022/03/10 07:47:49;;;;;;;20.73;12.90;;;8.50;49.10;;;;;;5041412;28;20030;-73
2022/03/10 07:50:15;;;;;;;20.55;12.45;;;8.70;48.70;;;;;;5054383;28;20035;-73
2022/03/10 07:52:41;;;;;;;23.10;11.65;;;8.80;48.30;;;;;;5044988;28;20033;-73
2022/03/10 07:55:08;;;;;;;20.02;11.50;;;9.00;48.00;;;;;;5036885;28;20045;-73
2022/03/10 07:57:35;;;;;;;21.67;11.20;;;9.20;47.60;;;;;;5050997;28;20036;-72
2022/03/10 08:00:04;;;;;;;18.80;12.00;;;9.30;47.10;;;;;;5054451;28;20115;-71
2022/03/10 08:02:36;;;;;;;20.00;12.05;;;9.40;46.90;;;;;;5046720;28;20029;-71
2022/03/10 08:05:02;;;;;;;20.73;12.05;;;9.60;46.50;;;;;;5043547;28;20032;-71
2022/03/10 08:07:32;;;;;;;19.35;11.10;;;9.80;46.10;;;;;;5037200;28;20108;-70
2022/03/10 08:10:01;;;;;;;17.17;10.20;;;10.00;45.90;;;;;;5050472;28;20438;-70
2022/03/10 08:12:33;;;;;;;16.35;10.52;;;10.20;45.60;;;;;;5048223;28;20108;-67
2022/03/10 08:14:59;;;;;;;23.08;11.18;;;10.50;45.30;;;;;;5035586;28;20041;-67
2022/03/10 08:17:28;;;;;;;21.48;10.52;;;10.80;44.90;;;;;;5054487;28;20450;-71
2022/03/10 08:19:54;;;;;;;18.63;10.85;;;11.00;44.40;;;;;;5049100;28;20426;-72
2022/03/10 08:22:21;;;;;;;17.88;10.45;;;11.20;44.00;;;;;;5037974;28;20351;-70
2022/03/10 08:24:47;;;;;;;19.38;11.23;;;11.30;43.60;;;;;;5049558;28;20503;-69
2022/03/10 08:27:16;;;;;;;19.83;12.10;;;11.40;43.30;;;;;;5055018;28;20020;-68
2022/03/10 08:29:43;;;;;;;18.00;11.02;;;11.60;43.10;;;;;;5044456;28;20178;-72
2022/03/10 08:32:09;;;;;;;18.58;11.75;;;11.70;42.90;;;;;;5050122;28;20035;-71
2022/03/10 08:34:36;;;;;;;17.60;10.95;;;11.90;42.60;;;;;;5037464;28;20022;-70
2022/03/10 08:37:02;;;;;;;18.85;10.90;;;12.10;42.40;;;;;;5038015;28;20024;-70
2022/03/10 08:39:28;;;;;;;17.67;11.18;;;12.20;42.10;;;;;;5035552;28;20022;-71
2022/03/10 08:41:53;;;;;;;17.33;11.25;;;12.40;41.90;;;;;;5036946;28;20044;-71
2022/03/10 08:44:20;;;;;;;18.60;11.90;;;12.60;41.70;;;;;;5036613;28;20437;-71
2022/03/10 08:46:47;;;;;;;18.45;11.68;;;12.70;41.50;;;;;;5035988;28;20044;-72
2022/03/10 08:49:13;;;;;;;18.52;10.95;;;12.90;41.20;;;;;;5039536;28;20048;-73
2022/03/10 08:51:39;;;;;;;18.60;11.20;;;13.00;41.10;;;;;;5042696;28;20141;-74
2022/03/10 08:54:05;;;;;;;17.63;10.50;;;13.10;40.90;;;;;;5051946;28;20120;-73
2022/03/10 08:56:31;;;;;;;17.80;11.13;;;13.30;40.70;;;;;;5043992;28;20112;-74
2022/03/10 08:58:57;;;;;;;18.33;10.93;;;13.40;40.50;;;;;;5016688;28;20017;-73
2022/03/10 09:01:23;;;;;;;20.02;10.88;;;13.60;40.30;;;;;;5052773;28;20094;-72
2022/03/10 09:03:48;;;;;;;18.17;11.27;;;13.80;40.20;;;;;;5053993;28;20031;-73
2022/03/10 09:06:14;;;;;;;18.25;9.98;;;13.80;39.90;;;;;;5054049;28;20104;-74
2022/03/10 09:08:42;;;;;;;17.58;11.13;;;14.00;39.80;;;;;;5037026;28;20046;-75
2022/03/10 09:11:08;;;;;;;17.65;11.25;;;14.20;39.70;;;;;;5040927;28;20087;-74
2022/03/10 09:13:33;;;;;;;19.45;11.05;;;14.30;39.40;;;;;;5035226;28;20450;-74
2022/03/10 09:15:59;;;;;;;18.40;10.93;;;14.40;39.30;;;;;;5042637;28;20105;-74
2022/03/10 09:18:25;;;;;;;16.13;11.15;;;14.50;39.10;;;;;;5029090;28;20036;-71
2022/03/10 09:20:50;;;;;;;18.75;11.88;;;14.60;38.90;;;;;;5046065;28;20075;-69
2022/03/10 09:23:16;;;;;;;20.75;11.00;;;14.70;38.70;;;;;;5047595;28;20029;-71
2022/03/10 09:25:41;;;;;;;19.08;10.82;;;14.80;38.50;;;;;;5031374;28;20048;-67
2022/03/10 09:28:07;;;;;;;17.90;11.75;;;14.90;38.40;;;;;;5019630;28;20040;-68
2022/03/10 09:30:33;;;;;;;18.85;12.02;;;15.00;38.20;;;;;;5043729;28;20377;-69
2022/03/10 09:32:59;;;;;;;19.65;11.73;;;15.10;38.00;;;;;;5053797;28;20338;-69
2022/03/10 09:35:25;;;;;;;20.15;12.23;;;15.20;37.90;;;;;;5038557;28;20489;-70
2022/03/10 09:37:52;;;;;;;17.70;11.75;;;15.30;37.80;;;;;;5034434;28;20034;-70
2022/03/10 09:40:18;;;;;;;18.45;11.60;;;15.20;37.60;;;;;;5035142;28;20120;-71
2022/03/10 09:42:47;;;;;;;20.42;11.63;;;15.30;37.60;;;;;;5033362;28;20025;-70
2022/03/10 09:45:15;;;;;;;18.55;11.25;;;15.40;37.60;;;;;;5036184;28;20025;-71
2022/03/10 09:47:42;;;;;;;20.60;11.07;;;15.50;38.20;;;;;;5038307;28;20070;-71
2022/03/10 09:50:12;;;;;;;18.13;11.52;;;15.50;37.50;;;;;;5048425;28;20025;-70
2022/03/10 09:52:38;;;;;;;19.60;11.52;;;15.70;37.40;;;;;;5035873;28;20029;-70
2022/03/10 09:55:06;;;;;;;17.73;10.52;;;15.80;37.40;;;;;;5044564;28;20028;-70
2022/03/10 09:57:34;;;;;;;19.08;10.70;;;15.80;37.30;;;;;;5036567;28;20449;-70
2022/03/10 10:00:00;;;;;;;17.42;10.48;;;15.90;37.20;;;;;;5048033;28;20032;-70
2022/03/10 10:02:27;;;;;;;18.35;11.75;;;15.90;37.20;;;;;;5052282;28;20029;-70
2022/03/10 10:04:53;;;;;;;18.50;11.32;;;16.00;37.20;;;;;;5046861;28;20041;-70
2022/03/10 10:07:21;;;;;;;18.77;10.98;;;16.10;37.10;;;;;;5034603;28;20072;-70
2022/03/10 10:09:56;;;;;;;16.58;10.82;;;16.20;37.10;;;;;;5037655;28;20323;-70
2022/03/10 10:12:25;;;;;;;18.67;12.20;;;16.20;37.10;;;;;;5053115;28;20029;-70
2022/03/10 10:14:51;;;;;;;19.73;11.95;;;16.20;36.90;;;;;;5026121;28;20021;-70
2022/03/10 10:17:28;;;;;;;17.38;10.77;;;16.20;36.90;;;;;;5045712;28;20026;-70
2022/03/10 10:19:57;;;;;;;22.58;12.73;;;16.20;36.90;;;;;;5034551;28;20033;-71
2022/03/10 10:22:24;;;;;;;21.73;12.07;;;16.30;36.90;;;;;;5040873;28;20028;-70
2022/03/10 10:25:02;;;;;;;21.75;12.50;;;16.30;37.00;;;;;;5037115;28;20026;-70
2022/03/10 10:27:32;;;;;;;19.45;11.82;;;16.40;36.90;;;;;;5037986;28;20064;-70
2022/03/10 10:30:00;;;;;;;19.52;11.73;;;16.40;36.80;;;;;;5020367;28;20095;-71
2022/03/10 10:32:34;;;;;;;18.23;11.07;;;16.40;36.90;;;;;;5037752;28;20025;-70
2022/03/10 10:35:07;;;;;;;20.25;11.35;;;16.50;36.90;;;;;;5038777;28;20406;-71
2022/03/10 10:37:34;;;;;;;18.23;11.60;;;16.60;36.90;;;;;;5042086;28;20108;-72
2022/03/10 10:39:59;;;;;;;18.75;11.27;;;16.60;36.90;;;;;;5043303;28;20151;-70
2022/03/10 10:42:28;;;;;;;19.02;10.50;;;16.70;36.90;;;;;;5043761;28;20460;-71
2022/03/10 10:44:54;;;;;;;18.80;11.35;;;16.80;37.00;;;;;;5038009;28;20025;-71
2022/03/10 10:47:19;;;;;;;18.25;10.25;;;16.90;37.00;;;;;;5027443;28;20043;-71
2022/03/10 10:49:56;;;;;;;19.70;11.18;;;17.00;37.20;;;;;;5050600;28;20095;-71
2022/03/10 10:52:22;;;;;;;18.45;10.80;;;17.10;37.00;;;;;;5037563;28;20029;-71
2022/03/10 10:54:48;;;;;;;18.92;10.80;;;17.10;37.00;;;;;;5040679;28;20347;-72
2022/03/10 10:57:21;;;;;;;17.25;10.95;;;17.20;37.00;;;;;;5054356;28;20033;-72
2022/03/10 10:59:47;;;;;;;18.83;10.90;;;17.30;36.80;;;;;;5055346;28;20188;-72
2022/03/10 11:02:21;;;;;;;17.58;11.43;;;17.40;36.90;;;;;;5048966;28;20135;-72
2022/03/10 11:04:49;;;;;;;18.13;10.65;;;17.50;36.80;;;;;;5051684;28;20078;-69
2022/03/10 11:07:15;;;;;;;19.17;11.20;;;17.50;36.70;;;;;;5044970;28;20098;-74
2022/03/10 11:09:46;;;;;;;18.13;11.20;;;17.50;36.60;;;;;;5036578;28;20048;-72
2022/03/10 11:12:14;;;;;;;17.88;10.93;;;17.50;36.60;;;;;;5037606;28;20405;-71
2022/03/10 11:14:44;;;;;;;18.27;10.70;;;17.50;36.40;;;;;;5037627;28;20037;-71
2022/03/10 11:17:12;;;;;;;18.73;11.07;;;17.60;36.50;;;;;;5049319;28;20032;-73
2022/03/10 11:19:49;;;;;;;17.08;10.35;;;17.50;36.40;;;;;;5057265;28;20055;-74
2022/03/10 11:22:27;;;;;;;20.10;10.73;;;17.50;36.40;;;;;;5043599;28;20029;-74
2022/03/10 11:25:20;;;;;;;19.25;10.68;;;17.50;36.40;;;;;;5057574;28;20033;-74
2022/03/10 11:27:56;;;;;;;17.55;10.35;;;17.50;36.30;;;;;;5036534;28;20065;-74
2022/03/10 11:30:27;;;;;;;19.85;11.43;;;17.60;36.20;;;;;;5036582;28;20049;-74
2022/03/10 11:33:01;;;;;;;18.67;10.63;;;17.50;36.10;;;;;;5019516;28;20082;-73
2022/03/10 11:35:32;;;;;;;18.45;10.52;;;17.50;36.10;;;;;;5048160;28;20041;-72
2022/03/10 11:37:57;;;;;;;20.50;11.60;;;17.50;36.10;;;;;;5053794;28;20453;-74
2022/03/10 11:40:44;;;;;;;18.42;10.55;;;17.40;36.00;;;;;;5053994;28;20044;-73
2022/03/10 11:43:11;;;;;;;19.25;11.80;;;17.40;35.80;;;;;;5036614;28;20342;-73
2022/03/10 11:45:37;;;;;;;18.33;10.10;;;17.40;35.80;;;;;;5048087;28;20056;-74
2022/03/10 11:48:28;;;;;;;16.98;10.23;;;17.40;35.90;;;;;;5056255;28;20051;-74
2022/03/10 11:50:54;;;;;;;19.20;11.52;;;17.30;35.70;;;;;;5042166;28;20040;-74
2022/03/10 11:53:21;;;;;;;19.25;10.75;;;17.30;35.80;;;;;;5055815;28;20036;-74
2022/03/10 11:55:54;;;;;;;25.95;11.18;;;17.30;35.80;;;;;;5053646;28;20033;-74
2022/03/10 11:58:34;;;;;;;19.60;12.00;;;17.30;35.70;;;;;;5055910;28;20037;-74
2022/03/10 12:01:00;;;;;;;20.00;11.38;;;17.30;35.70;;;;;;5046042;28;20033;-73
2022/03/10 12:03:38;;;;;;;18.20;11.75;;;17.30;35.80;;;;;;5055880;28;20037;-75
2022/03/10 12:06:06;;;;;;;19.30;11.77;;;17.20;35.60;;;;;;5039246;28;20052;-73
2022/03/10 12:08:37;;;;;;;18.40;10.23;;;17.20;35.70;;;;;;5056483;28;20037;-72
2022/03/10 12:11:13;;;;;;;18.48;11.73;;;17.10;35.70;;;;;;5046550;28;20044;-72
2022/03/10 12:13:44;;;;;;;20.52;11.90;;;17.10;35.70;;;;;;5056047;28;20061;-72
2022/03/10 12:16:27;;;;;;;17.92;11.13;;;17.10;35.60;;;;;;5037848;28;20372;-75
2022/03/10 12:18:54;;;;;;;21.02;12.25;;;17.20;35.60;;;;;;5057214;28;20025;-73
2022/03/10 12:21:24;;;;;;;16.90;11.00;;;17.10;35.60;;;;;;5038885;28;20123;-73
2022/03/10 12:24:01;;;;;;;17.10;10.52;;;17.10;35.60;;;;;;5056208;28;20361;-73
2022/03/10 12:26:33;;;;;;;19.00;11.20;;;17.10;35.60;;;;;;5055758;28;20036;-73
2022/03/10 12:29:05;;;;;;;16.63;10.57;;;17.00;35.50;;;;;;5056280;28;20064;-73
2022/03/10 12:31:35;;;;;;;18.80;10.80;;;17.00;35.40;;;;;;5055325;28;20457;-73
2022/03/10 12:34:12;;;;;;;18.30;10.77;;;17.00;35.50;;;;;;5046324;28;20029;-73
2022/03/10 12:36:49;;;;;;;19.23;10.77;;;16.90;36.10;;;;;;5035615;28;20055;-74
2022/03/10 12:39:17;;;;;;;17.42;11.07;;;16.90;35.40;;;;;;5053586;28;20461;-73